Time;durP1;ratioP1;P1;durP2;ratioP2;P2;SDS_P1;SDS_P2;PMS_P1;PMS_P2;Temp;Humidity;BMP_temperature;BMP_pressure;BME280_temperature;BME280_humidity;BME280_pressure;Samples;Min_cycle;Max_cycle;Signal;HPM_P1;HPM_P2
2022/12/13 00:00:34;;;;;;;6.47;4.28;;;;;;;;;;5034127;28;20143;-62
2022/12/13 00:02:59;;;;;;;5.78;4.13;;;;;;;;;;5033025;28;20044;-61
2022/12/13 00:05:25;;;;;;;4.60;3.80;;;;;;;;;;5033675;28;20108;-61
2022/12/13 00:07:50;;;;;;;5.32;4.10;;;;;;;;;;5033977;28;20472;-61
2022/12/13 00:10:16;;;;;;;4.25;3.60;;;;;;;;;;5033833;28;20057;-61
2022/12/13 00:12:41;;;;;;;5.35;3.78;;;;;;;;;;5033911;28;20022;-61
2022/12/13 00:15:08;;;;;;;4.80;4.00;;;;;;;;;;5034172;28;20026;-61
2022/12/13 00:17:33;;;;;;;5.70;3.92;;;;;;;;;;5034112;28;20021;-60
2022/12/13 00:19:59;;;;;;;4.80;3.88;;;;;;;;;;5033595;28;20489;-64
2022/12/13 00:22:24;;;;;;;4.40;3.65;;;;;;;;;;5033950;28;20029;-61
2022/12/13 00:24:53;;;;;;;4.90;3.80;;;;;;;;;;5033850;28;20029;-62
2022/12/13 00:27:18;;;;;;;4.65;3.38;;;;;;;;;;5033641;28;20476;-62
2022/12/13 00:29:43;;;;;;;5.38;3.90;;;;;;;;;;5033778;28;20041;-62
2022/12/13 00:32:09;;;;;;;4.30;3.70;;;;;;;;;;5033595;28;20465;-65
2022/12/13 00:34:34;;;;;;;4.97;4.10;;;;;;;;;;5033676;28;20025;-62
2022/12/13 00:37:00;;;;;;;6.47;4.10;;;;;;;;;;5033377;28;20516;-61
2022/12/13 00:39:25;;;;;;;5.25;3.95;;;;;;;;;;5033284;28;20021;-65
2022/12/13 00:41:51;;;;;;;6.15;4.03;;;;;;;;;;5033231;28;20029;-60
2022/12/13 00:44:18;;;;;;;4.78;3.63;;;;;;;;;;5033429;28;20033;-64
2022/12/13 00:46:44;;;;;;;5.22;3.67;;;;;;;;;;5033296;28;20040;-64
2022/12/13 00:49:11;;;;;;;7.63;3.90;;;;;;;;;;5033367;28;20476;-61
2022/12/13 00:51:38;;;;;;;5.03;3.50;;;;;;;;;;5033160;28;20028;-61
2022/12/13 00:54:04;;;;;;;5.65;3.60;;;;;;;;;;5032868;28;20493;-61
2022/12/13 00:56:31;;;;;;;4.03;3.63;;;;;;;;;;5033310;28;20388;-60
2022/12/13 00:58:57;;;;;;;4.53;4.00;;;;;;;;;;5033251;28;20075;-61
2022/12/13 01:01:29;;;;;;;4.53;3.80;;;;;;;;;;5033041;28;20030;-60
2022/12/13 01:03:56;;;;;;;4.43;3.83;;;;;;;;;;5032978;28;20021;-61
2022/12/13 01:06:27;;;;;;;4.65;3.72;;;;;;;;;;5033214;28;20033;-61
2022/12/13 01:08:53;;;;;;;5.05;3.80;;;;;;;;;;5032892;28;20108;-61
2022/12/13 01:11:18;;;;;;;4.88;3.83;;;;;;;;;;5032807;28;20070;-61
2022/12/13 01:13:44;;;;;;;5.03;3.78;;;;;;;;;;5032728;28;20036;-61
2022/12/13 01:16:11;;;;;;;5.53;3.75;;;;;;;;;;5032721;28;20388;-61
2022/12/13 01:18:39;;;;;;;4.38;3.95;;;;;;;;;;5032917;28;20028;-61
2022/12/13 01:21:12;;;;;;;4.82;3.50;;;;;;;;;;5032701;28;20025;-63
2022/12/13 01:23:38;;;;;;;4.47;3.58;;;;;;;;;;5032567;28;20030;-61
2022/12/13 01:26:05;;;;;;;5.22;3.50;;;;;;;;;;5032889;28;20029;-60
2022/12/13 01:28:30;;;;;;;4.80;3.35;;;;;;;;;;5032855;28;20373;-61
2022/12/13 01:30:58;;;;;;;5.75;3.85;;;;;;;;;;5032607;28;20055;-60
2022/12/13 01:33:25;;;;;;;5.13;3.92;;;;;;;;;;5032326;28;20117;-61
2022/12/13 01:35:50;;;;;;;4.25;3.47;;;;;;;;;;5032498;28;20032;-62
2022/12/13 01:38:16;;;;;;;4.50;3.72;;;;;;;;;;5032558;28;20549;-61
2022/12/13 01:40:56;;;;;;;4.13;3.42;;;;;;;;;;5032499;28;20021;-60
2022/12/13 01:43:23;;;;;;;4.22;3.58;;;;;;;;;;5032242;28;20033;-61
2022/12/13 01:45:49;;;;;;;5.70;3.42;;;;;;;;;;5032262;28;20033;-62
2022/12/13 01:48:23;;;;;;;4.50;3.40;;;;;;;;;;5031740;28;20029;-60
2022/12/13 01:50:52;;;;;;;4.32;3.58;;;;;;;;;;5032264;28;20477;-60
2022/12/13 01:53:22;;;;;;;4.22;3.50;;;;;;;;;;5032172;28;20112;-61
2022/12/13 01:55:51;;;;;;;5.00;3.90;;;;;;;;;;5031916;28;20480;-61
2022/12/13 01:58:18;;;;;;;4.05;3.33;;;;;;;;;;5031009;28;20037;-61
2022/12/13 02:00:44;;;;;;;4.55;3.53;;;;;;;;;;5032038;28;20026;-61
2022/12/13 02:03:11;;;;;;;3.88;3.47;;;;;;;;;;5031907;28;20041;-60
2022/12/13 02:06:00;;;;;;;4.28;3.15;;;;;;;;;;5032323;28;20033;-61
2022/12/13 02:08:25;;;;;;;4.50;3.47;;;;;;;;;;5032075;28;20098;-61
2022/12/13 02:10:52;;;;;;;4.68;3.67;;;;;;;;;;5032265;28;20720;-61
2022/12/13 02:13:17;;;;;;;5.97;3.80;;;;;;;;;;5032228;28;20036;-61
2022/12/13 02:16:07;;;;;;;3.70;3.30;;;;;;;;;;5030585;28;20389;-61
2022/12/13 02:19:11;;;;;;;4.82;3.85;;;;;;;;;;5032000;28;20090;-61
2022/12/13 02:21:56;;;;;;;4.70;3.70;;;;;;;;;;5032010;28;20025;-60
2022/12/13 02:24:43;;;;;;;4.32;3.63;;;;;;;;;;5031854;28;20065;-61
2022/12/13 02:27:14;;;;;;;8.13;3.45;;;;;;;;;;5031840;28;20030;-61
2022/12/13 02:29:39;;;;;;;4.95;3.55;;;;;;;;;;5031754;28;20033;-61
2022/12/13 02:32:44;;;;;;;3.53;3.20;;;;;;;;;;5031797;28;20032;-61
2022/12/13 02:35:24;;;;;;;4.25;3.58;;;;;;;;;;5031706;28;20109;-64
2022/12/13 02:38:04;;;;;;;3.90;3.50;;;;;;;;;;5032007;28;20382;-64
2022/12/13 02:40:45;;;;;;;4.43;3.53;;;;;;;;;;5031600;28;20039;-64
2022/12/13 02:43:19;;;;;;;3.85;3.20;;;;;;;;;;5031605;28;20033;-65
2022/12/13 02:45:48;;;;;;;4.28;3.30;;;;;;;;;;5031538;28;20032;-63
2022/12/13 02:48:20;;;;;;;4.40;3.40;;;;;;;;;;5031550;28;20503;-64
2022/12/13 02:50:47;;;;;;;4.72;3.50;;;;;;;;;;5031586;28;20029;-61
2022/12/13 02:53:14;;;;;;;4.15;3.30;;;;;;;;;;5031464;28;20461;-61
2022/12/13 02:55:40;;;;;;;3.95;3.30;;;;;;;;;;5031058;28;20053;-60
2022/12/13 02:58:06;;;;;;;3.90;3.33;;;;;;;;;;5031439;28;20025;-61
2022/12/13 03:01:11;;;;;;;4.80;3.40;;;;;;;;;;5032159;28;20064;-61
2022/12/13 03:03:40;;;;;;;4.10;3.08;;;;;;;;;;5035101;28;20391;-61
2022/12/13 03:06:38;;;;;;;3.70;3.33;;;;;;;;;;5033863;28;20112;-61
2022/12/13 03:09:24;;;;;;;3.35;3.03;;;;;;;;;;5031210;28;20124;-61
2022/12/13 03:15:01;;;;;;;4.03;3.40;;;;;;;;;;5035313;28;20033;-64
2022/12/13 03:17:30;;;;;;;3.55;3.17;;;;;;;;;;5035093;28;20025;-61
2022/12/13 03:19:56;;;;;;;3.67;2.97;;;;;;;;;;5035242;28;20021;-64
2022/12/13 03:22:21;;;;;;;4.05;3.28;;;;;;;;;;5034969;28;20517;-64
2022/12/13 03:24:47;;;;;;;4.15;3.00;;;;;;;;;;5034905;28;20032;-63
2022/12/13 03:27:12;;;;;;;3.50;3.05;;;;;;;;;;5034894;28;20065;-64
2022/12/13 03:29:39;;;;;;;4.00;3.30;;;;;;;;;;5034744;28;20029;-64
2022/12/13 03:32:04;;;;;;;4.18;3.40;;;;;;;;;;5034985;28;20502;-64
2022/12/13 03:34:30;;;;;;;6.93;3.22;;;;;;;;;;5034781;28;20030;-61
2022/12/13 03:36:55;;;;;;;4.22;3.05;;;;;;;;;;5034591;28;20061;-62
2022/12/13 03:39:21;;;;;;;4.47;3.20;;;;;;;;;;5034623;28;20033;-61
2022/12/13 03:41:48;;;;;;;3.47;3.03;;;;;;;;;;5034755;28;20096;-61
2022/12/13 03:44:14;;;;;;;3.65;2.97;;;;;;;;;;5033219;28;20028;-61
2022/12/13 03:46:40;;;;;;;3.83;3.20;;;;;;;;;;5034622;28;20029;-62
2022/12/13 03:49:05;;;;;;;4.18;3.30;;;;;;;;;;5034439;28;20029;-62
2022/12/13 03:51:30;;;;;;;3.55;3.08;;;;;;;;;;5034644;28;20033;-61
2022/12/13 03:53:56;;;;;;;3.47;3.13;;;;;;;;;;5034144;28;20465;-61
2022/12/13 03:56:21;;;;;;;5.53;3.30;;;;;;;;;;5034322;28;20022;-61
2022/12/13 03:58:47;;;;;;;4.10;3.08;;;;;;;;;;5034316;28;20022;-61
2022/12/13 04:01:15;;;;;;;3.45;3.15;;;;;;;;;;5034044;28;20021;-61
2022/12/13 04:03:43;;;;;;;3.30;2.97;;;;;;;;;;5034339;28;20033;-61
2022/12/13 04:06:09;;;;;;;3.42;3.13;;;;;;;;;;5034054;28;20461;-61
2022/12/13 04:08:36;;;;;;;4.00;3.10;;;;;;;;;;5034367;28;20029;-61
2022/12/13 04:13:31;;;;;;;3.00;2.80;;;;;;;;;;5033828;28;20125;-61
2022/12/13 04:13:51;;;;;;;3.22;2.90;;;;;;;;;;5033928;28;20552;-61
2022/12/13 04:16:17;;;;;;;3.95;3.30;;;;;;;;;;5032604;28;20033;-60
2022/12/13 04:18:42;;;;;;;4.05;3.25;;;;;;;;;;5033927;28;20393;-61
2022/12/13 04:21:08;;;;;;;3.55;2.95;;;;;;;;;;5033663;28;20026;-61
2022/12/13 04:23:34;;;;;;;4.38;3.17;;;;;;;;;;5033623;28;20030;-61
2022/12/13 04:26:00;;;;;;;3.40;2.92;;;;;;;;;;5033929;28;20025;-61
2022/12/13 04:28:25;;;;;;;4.75;3.22;;;;;;;;;;5033639;28;20021;-63
2022/12/13 04:30:51;;;;;;;4.15;2.92;;;;;;;;;;5033648;28;20028;-61
2022/12/13 04:33:19;;;;;;;3.13;2.83;;;;;;;;;;5033631;28;20708;-64
2022/12/13 04:35:45;;;;;;;4.13;3.10;;;;;;;;;;5033457;28;20362;-62
2022/12/13 04:38:11;;;;;;;4.03;3.13;;;;;;;;;;5033427;28;20143;-61
2022/12/13 04:40:37;;;;;;;3.88;3.22;;;;;;;;;;5033368;28;20112;-62
2022/12/13 04:43:02;;;;;;;3.55;3.13;;;;;;;;;;5033565;28;20041;-62
2022/12/13 04:45:27;;;;;;;3.17;2.85;;;;;;;;;;5033615;28;20068;-61
2022/12/13 04:47:53;;;;;;;5.28;3.05;;;;;;;;;;5033320;28;20021;-61
2022/12/13 04:50:18;;;;;;;4.28;3.05;;;;;;;;;;5033250;28;20036;-63
2022/12/13 04:52:44;;;;;;;3.38;2.92;;;;;;;;;;5033201;28;20515;-62
2022/12/13 04:55:10;;;;;;;4.18;3.30;;;;;;;;;;5032972;28;20104;-62
2022/12/13 04:57:35;;;;;;;3.50;3.08;;;;;;;;;;5033360;28;20028;-61
2022/12/13 05:00:02;;;;;;;3.00;2.70;;;;;;;;;;5033313;28;20029;-61
2022/12/13 05:02:28;;;;;;;5.18;3.40;;;;;;;;;;5033287;28;20028;-63
2022/12/13 05:04:53;;;;;;;4.20;2.90;;;;;;;;;;5032973;28;20100;-64
2022/12/13 05:07:19;;;;;;;3.80;3.08;;;;;;;;;;5032928;28;20477;-61
2022/12/13 05:09:44;;;;;;;3.20;2.88;;;;;;;;;;5033111;28;20033;-64
2022/12/13 05:12:10;;;;;;;3.95;2.60;;;;;;;;;;5032878;28;20366;-64
2022/12/13 05:14:35;;;;;;;3.47;3.10;;;;;;;;;;5032811;28;20113;-65
2022/12/13 05:17:01;;;;;;;3.78;2.88;;;;;;;;;;5032793;28;20049;-63
2022/12/13 05:19:27;;;;;;;3.17;2.83;;;;;;;;;;5032759;28;20496;-62
2022/12/13 05:21:52;;;;;;;4.20;3.20;;;;;;;;;;5032581;28;20025;-63
2022/12/13 05:24:18;;;;;;;3.30;3.00;;;;;;;;;;5031797;28;20032;-64
2022/12/13 05:26:43;;;;;;;3.85;3.13;;;;;;;;;;5032750;28;20022;-64
2022/12/13 05:29:09;;;;;;;4.07;3.08;;;;;;;;;;5032511;28;20025;-64
2022/12/13 05:31:34;;;;;;;3.80;2.88;;;;;;;;;;5032522;28;20049;-63
2022/12/13 05:34:00;;;;;;;3.08;2.70;;;;;;;;;;5031339;28;20033;-64
2022/12/13 05:36:26;;;;;;;3.60;3.28;;;;;;;;;;5032639;28;20021;-64
2022/12/13 05:38:52;;;;;;;3.85;2.80;;;;;;;;;;5032263;28;20492;-61
2022/12/13 05:41:21;;;;;;;3.42;2.85;;;;;;;;;;5032468;28;20033;-61
2022/12/13 05:43:46;;;;;;;4.20;3.22;;;;;;;;;;5032354;28;20037;-64
2022/12/13 05:46:12;;;;;;;3.22;2.92;;;;;;;;;;5032104;28;20057;-63
2022/12/13 05:48:38;;;;;;;3.90;2.75;;;;;;;;;;5032327;28;20028;-64
2022/12/13 05:51:04;;;;;;;3.28;2.78;;;;;;;;;;5032335;28;20017;-64
2022/12/13 05:53:30;;;;;;;3.90;3.10;;;;;;;;;;5031986;28;20033;-63
2022/12/13 05:55:59;;;;;;;3.25;2.95;;;;;;;;;;5031963;28;20049;-61
2022/12/13 05:58:24;;;;;;;3.15;2.85;;;;;;;;;;5032012;28;20547;-64
2022/12/13 06:00:50;;;;;;;3.38;2.95;;;;;;;;;;5032032;28;20026;-64
2022/12/13 06:03:15;;;;;;;4.68;3.13;;;;;;;;;;5031785;28;20025;-64
2022/12/13 06:05:42;;;;;;;3.90;2.90;;;;;;;;;;5032094;28;20018;-60
2022/12/13 06:08:08;;;;;;;3.70;3.00;;;;;;;;;;5031803;28;20021;-64
2022/12/13 06:10:34;;;;;;;3.58;2.97;;;;;;;;;;5031814;28;20542;-61
2022/12/13 06:12:59;;;;;;;3.50;2.70;;;;;;;;;;5031990;28;20025;-61
2022/12/13 06:15:25;;;;;;;2.83;2.50;;;;;;;;;;5031854;28;20411;-63
2022/12/13 06:17:51;;;;;;;2.88;2.63;;;;;;;;;;5031997;28;20172;-63
2022/12/13 06:20:17;;;;;;;3.15;2.85;;;;;;;;;;5031989;28;20020;-59
2022/12/13 06:22:42;;;;;;;3.88;2.78;;;;;;;;;;5031600;28;20032;-63
2022/12/13 06:25:09;;;;;;;3.30;2.60;;;;;;;;;;5030639;28;20026;-63
2022/12/13 06:27:35;;;;;;;3.92;3.00;;;;;;;;;;5031875;28;20044;-63
2022/12/13 06:30:00;;;;;;;2.95;2.65;;;;;;;;;;5031586;28;20472;-62
2022/12/13 06:32:26;;;;;;;3.45;3.10;;;;;;;;;;5031828;28;20029;-63
2022/12/13 06:34:51;;;;;;;3.35;3.00;;;;;;;;;;5033225;28;20068;-62
2022/12/13 06:37:17;;;;;;;2.90;2.60;;;;;;;;;;5035449;28;20099;-59
2022/12/13 06:39:42;;;;;;;3.03;2.72;;;;;;;;;;5035619;28;20056;-59
2022/12/13 06:42:15;;;;;;;4.05;2.55;;;;;;;;;;5033921;28;20029;-62
2022/12/13 06:44:41;;;;;;;4.72;3.00;;;;;;;;;;5032191;28;20037;-62
2022/12/13 06:47:07;;;;;;;3.20;2.90;;;;;;;;;;5038446;28;20537;-61
2022/12/13 06:49:33;;;;;;;4.03;3.10;;;;;;;;;;5046216;28;20021;-63
2022/12/13 06:51:59;;;;;;;3.45;3.10;;;;;;;;;;5046988;28;20471;-63
2022/12/13 06:54:24;;;;;;;3.00;2.70;;;;;;;;;;5044044;28;20060;-63
2022/12/13 06:56:50;;;;;;;3.45;2.92;;;;;;;;;;5055045;28;20462;-62
2022/12/13 06:59:16;;;;;;;2.90;2.60;;;;;;;;;;5045099;28;20027;-62
2022/12/13 07:01:41;;;;;;;3.28;2.70;;;;;;;;;;5043384;28;20026;-62
2022/12/13 07:04:10;;;;;;;2.97;2.67;;;;;;;;;;5043886;28;20025;-63
2022/12/13 07:06:36;;;;;;;3.28;2.88;;;;;;;;;;5044679;28;20525;-63
2022/12/13 07:09:02;;;;;;;3.25;2.80;;;;;;;;;;5043194;28;20060;-62
2022/12/13 07:11:29;;;;;;;3.28;2.80;;;;;;;;;;5043414;28;20048;-62
2022/12/13 07:13:56;;;;;;;3.20;2.90;;;;;;;;;;5044909;28;20360;-60
2022/12/13 07:16:22;;;;;;;5.88;2.90;;;;;;;;;;5043300;28;20393;-62
2022/12/13 07:19:00;;;;;;;3.28;2.88;;;;;;;;;;5043418;28;20025;-61
2022/12/13 07:21:26;;;;;;;3.92;3.08;;;;;;;;;;5043508;28;20033;-62
2022/12/13 07:23:52;;;;;;;3.72;3.00;;;;;;;;;;5042663;28;20131;-62
2022/12/13 07:26:18;;;;;;;2.95;2.65;;;;;;;;;;5044270;28;20112;-61
2022/12/13 07:28:45;;;;;;;2.97;2.70;;;;;;;;;;5043173;28;20022;-60
2022/12/13 07:31:11;;;;;;;3.33;2.85;;;;;;;;;;5038084;28;20055;-61
2022/12/13 07:33:38;;;;;;;3.92;2.95;;;;;;;;;;5034577;28;20018;-62
2022/12/13 07:36:06;;;;;;;2.85;2.47;;;;;;;;;;5034515;28;20084;-61
2022/12/13 07:38:36;;;;;;;3.90;2.67;;;;;;;;;;5033277;28;20496;-60
2022/12/13 07:41:03;;;;;;;4.07;2.90;;;;;;;;;;5034645;28;20075;-62
2022/12/13 07:43:30;;;;;;;3.50;2.90;;;;;;;;;;5034369;28;20503;-61
2022/12/13 07:46:01;;;;;;;3.13;2.80;;;;;;;;;;5033776;28;20100;-61
2022/12/13 07:48:28;;;;;;;3.20;2.90;;;;;;;;;;5035984;28;20026;-60
2022/12/13 07:51:00;;;;;;;3.58;2.72;;;;;;;;;;5042882;28;20070;-60
2022/12/13 07:53:25;;;;;;;3.50;3.08;;;;;;;;;;5036792;28;20034;-61
2022/12/13 07:55:51;;;;;;;3.25;2.88;;;;;;;;;;5033845;28;20489;-61
2022/12/13 07:58:17;;;;;;;2.67;2.45;;;;;;;;;;5034305;28;20397;-62
2022/12/13 08:00:44;;;;;;;3.20;2.90;;;;;;;;;;5034359;28;20028;-61
2022/12/13 08:03:10;;;;;;;4.95;3.65;;;;;;;;;;5034270;28;20447;-62
2022/12/13 08:05:36;;;;;;;6.32;4.38;;;;;;;;;;5033970;28;20100;-62
2022/12/13 08:08:04;;;;;;;5.97;3.70;;;;;;;;;;5033793;28;20023;-62
2022/12/13 08:10:30;;;;;;;4.40;3.40;;;;;;;;;;5033693;28;20528;-61
2022/12/13 08:12:56;;;;;;;5.05;3.67;;;;;;;;;;5034078;28;20033;-59
2022/12/13 08:15:23;;;;;;;3.40;3.00;;;;;;;;;;5033803;28;20151;-61
2022/12/13 08:17:49;;;;;;;4.05;3.30;;;;;;;;;;5033667;28;20064;-62
2022/12/13 08:20:16;;;;;;;4.03;3.45;;;;;;;;;;5033578;28;20446;-61
2022/12/13 08:22:42;;;;;;;4.57;3.17;;;;;;;;;;5033567;28;20041;-62
2022/12/13 08:25:08;;;;;;;3.55;3.05;;;;;;;;;;5033658;28;20087;-62
2022/12/13 08:27:33;;;;;;;3.45;3.15;;;;;;;;;;5033869;28;20029;-62
2022/12/13 08:29:59;;;;;;;3.40;3.05;;;;;;;;;;5032168;28;20551;-60
2022/12/13 08:32:24;;;;;;;3.38;3.08;;;;;;;;;;5033767;28;20033;-59
2022/12/13 08:34:50;;;;;;;3.42;3.03;;;;;;;;;;5033817;28;20052;-60
2022/12/13 08:37:16;;;;;;;5.18;3.33;;;;;;;;;;5033620;28;20424;-60
2022/12/13 08:39:43;;;;;;;3.42;3.03;;;;;;;;;;5033386;28;20065;-61
2022/12/13 08:42:14;;;;;;;5.80;3.10;;;;;;;;;;5033216;28;20582;-59
2022/12/13 08:44:40;;;;;;;4.90;3.30;;;;;;;;;;5033318;28;20393;-62
2022/12/13 08:47:05;;;;;;;4.40;3.33;;;;;;;;;;5033542;28;20033;-61
2022/12/13 08:49:31;;;;;;;4.05;3.20;;;;;;;;;;5033506;28;20033;-60
2022/12/13 08:51:57;;;;;;;3.50;2.85;;;;;;;;;;5033331;28;20538;-60
2022/12/13 08:54:22;;;;;;;3.33;3.03;;;;;;;;;;5032474;28;20405;-60
2022/12/13 08:56:48;;;;;;;3.38;3.08;;;;;;;;;;5033151;28;20164;-61
2022/12/13 08:59:13;;;;;;;3.83;3.22;;;;;;;;;;5033266;28;20032;-60
2022/12/13 09:01:39;;;;;;;4.57;3.13;;;;;;;;;;5032982;28;20239;-60
2022/12/13 09:04:04;;;;;;;3.80;3.05;;;;;;;;;;5033008;28;20051;-60
2022/12/13 09:06:30;;;;;;;3.90;2.97;;;;;;;;;;5032734;28;20025;-60
2022/12/13 09:08:55;;;;;;;3.97;3.22;;;;;;;;;;5032885;28;20021;-60
2022/12/13 09:11:21;;;;;;;4.00;3.20;;;;;;;;;;5032759;28;20079;-60
2022/12/13 09:13:47;;;;;;;5.72;3.20;;;;;;;;;;5032720;28;20512;-60
2022/12/13 09:16:17;;;;;;;4.78;3.40;;;;;;;;;;5032695;28;20190;-61
2022/12/13 09:18:43;;;;;;;4.65;3.35;;;;;;;;;;5032995;28;20127;-60
2022/12/13 09:21:11;;;;;;;4.72;2.83;;;;;;;;;;5032545;28;20029;-60
2022/12/13 09:23:37;;;;;;;4.10;2.88;;;;;;;;;;5032719;28;20371;-61
2022/12/13 09:26:03;;;;;;;4.43;3.33;;;;;;;;;;5032717;28;20028;-61
2022/12/13 09:28:29;;;;;;;3.65;3.25;;;;;;;;;;5032811;28;20097;-60
2022/12/13 09:30:56;;;;;;;4.55;3.45;;;;;;;;;;5032717;28;20025;-61
2022/12/13 09:33:21;;;;;;;4.93;3.17;;;;;;;;;;5032353;28;20024;-60
2022/12/13 09:35:47;;;;;;;3.47;2.88;;;;;;;;;;5032587;28;20033;-61
2022/12/13 09:38:13;;;;;;;3.50;3.08;;;;;;;;;;5032283;28;20049;-61
2022/12/13 09:40:41;;;;;;;3.90;3.03;;;;;;;;;;5032374;28;20047;-60
2022/12/13 09:43:13;;;;;;;4.68;3.13;;;;;;;;;;5032250;28;20107;-60
2022/12/13 09:45:44;;;;;;;5.15;3.28;;;;;;;;;;5032202;28;20057;-60
2022/12/13 09:48:16;;;;;;;4.03;3.22;;;;;;;;;;5032114;28;20028;-60
2022/12/13 09:50:42;;;;;;;3.72;2.95;;;;;;;;;;5030958;28;20040;-60
2022/12/13 09:53:12;;;;;;;5.20;3.10;;;;;;;;;;5031012;28;20029;-60
2022/12/13 09:55:41;;;;;;;3.33;2.97;;;;;;;;;;5030681;28;20050;-61
2022/12/13 09:58:18;;;;;;;4.35;3.28;;;;;;;;;;5032284;28;20363;-60
2022/12/13 10:00:47;;;;;;;3.40;3.10;;;;;;;;;;5030730;28;20028;-60
2022/12/13 10:03:15;;;;;;;3.90;3.08;;;;;;;;;;5031892;28;20060;-60
2022/12/13 10:05:44;;;;;;;5.47;3.35;;;;;;;;;;5030621;28;20049;-60
2022/12/13 10:08:18;;;;;;;3.83;3.20;;;;;;;;;;5032201;28;20053;-61
2022/12/13 10:10:44;;;;;;;4.25;3.50;;;;;;;;;;5031288;28;20469;-62
2022/12/13 10:13:23;;;;;;;4.25;3.25;;;;;;;;;;5032056;28;20029;-60
2022/12/13 10:16:24;;;;;;;5.20;3.60;;;;;;;;;;5031401;28;20512;-62
2022/12/13 10:18:50;;;;;;;3.28;2.97;;;;;;;;;;5031355;28;20120;-60
2022/12/13 10:21:43;;;;;;;3.65;3.30;;;;;;;;;;5031819;28;20450;-61
2022/12/13 10:24:17;;;;;;;3.65;3.15;;;;;;;;;;5013225;28;20038;-62
2022/12/13 10:26:42;;;;;;;4.88;3.45;;;;;;;;;;5031767;28;20424;-60
2022/12/13 10:29:08;;;;;;;3.28;2.97;;;;;;;;;;5031851;28;20025;-60
2022/12/13 10:31:49;;;;;;;3.53;2.90;;;;;;;;;;5031665;28;20473;-60
2022/12/13 10:34:27;;;;;;;3.35;2.83;;;;;;;;;;5031563;28;20113;-60
2022/12/13 10:36:53;;;;;;;3.70;3.33;;;;;;;;;;5031559;28;20018;-60
2022/12/13 10:39:36;;;;;;;4.30;3.20;;;;;;;;;;5031943;28;20032;-59
2022/12/13 10:42:05;;;;;;;3.40;2.92;;;;;;;;;;5031575;28;20024;-60
2022/12/13 10:44:31;;;;;;;4.15;3.22;;;;;;;;;;5031676;28;20061;-60
2022/12/13 10:47:14;;;;;;;3.67;3.25;;;;;;;;;;5031553;28;20409;-60
2022/12/13 10:49:57;;;;;;;4.03;3.10;;;;;;;;;;5031471;28;20025;-61
2022/12/13 10:52:36;;;;;;;3.97;3.15;;;;;;;;;;5031449;28;20112;-60
2022/12/13 10:55:21;;;;;;;5.28;3.55;;;;;;;;;;5031339;28;20536;-62
2022/12/13 10:57:52;;;;;;;3.30;2.92;;;;;;;;;;5031775;28;20040;-60
2022/12/13 11:00:40;;;;;;;4.03;2.95;;;;;;;;;;5031391;28;20476;-61
2022/12/13 11:03:12;;;;;;;3.90;3.50;;;;;;;;;;5031496;28;20029;-61
2022/12/13 11:05:39;;;;;;;3.83;3.25;;;;;;;;;;5031702;28;20552;-60
2022/12/13 11:08:17;;;;;;;3.80;3.05;;;;;;;;;;5030093;28;20022;-61
2022/12/13 11:10:43;;;;;;;3.83;3.15;;;;;;;;;;5031674;28;20194;-60
2022/12/13 11:13:23;;;;;;;4.00;3.13;;;;;;;;;;5031209;28;20187;-61
2022/12/13 11:15:54;;;;;;;3.90;3.00;;;;;;;;;;5031302;28;20025;-63
2022/12/13 11:18:23;;;;;;;4.40;3.30;;;;;;;;;;5031204;28;20091;-62
2022/12/13 11:21:06;;;;;;;3.10;2.70;;;;;;;;;;5031173;28;20547;-62
2022/12/13 11:23:53;;;;;;;3.65;3.25;;;;;;;;;;5033649;28;20473;-60
2022/12/13 11:26:23;;;;;;;3.45;2.78;;;;;;;;;;5034884;28;20064;-62
2022/12/13 11:29:07;;;;;;;3.22;2.80;;;;;;;;;;5034856;28;20029;-62
2022/12/13 11:31:53;;;;;;;3.72;3.00;;;;;;;;;;5034965;28;20041;-60
2022/12/13 11:34:31;;;;;;;4.28;2.72;;;;;;;;;;5034622;28;20033;-62
2022/12/13 11:37:16;;;;;;;3.50;3.10;;;;;;;;;;5034559;28;20033;-60
2022/12/13 11:39:56;;;;;;;4.28;3.13;;;;;;;;;;5034825;28;20096;-60
2022/12/13 11:42:34;;;;;;;3.30;2.90;;;;;;;;;;5034664;28;20037;-60
2022/12/13 11:45:40;;;;;;;3.42;2.83;;;;;;;;;;5033187;28;20087;-60
2022/12/13 11:48:38;;;;;;;4.05;3.17;;;;;;;;;;5034461;28;20040;-60
2022/12/13 11:51:07;;;;;;;3.75;3.00;;;;;;;;;;5030580;28;20041;-60
2022/12/13 11:53:42;;;;;;;3.10;2.80;;;;;;;;;;5034771;28;20079;-60
2022/12/13 11:56:22;;;;;;;3.92;2.92;;;;;;;;;;5033983;28;20060;-60
2022/12/13 11:58:54;;;;;;;3.38;3.03;;;;;;;;;;5034294;28;20075;-61
2022/12/13 12:01:45;;;;;;;3.28;2.60;;;;;;;;;;5034090;28;20060;-60
2022/12/13 12:04:28;;;;;;;2.97;2.67;;;;;;;;;;5033967;28;20040;-61
2022/12/13 12:06:59;;;;;;;3.78;3.22;;;;;;;;;;5034040;28;20033;-61
2022/12/13 12:09:27;;;;;;;3.65;3.05;;;;;;;;;;5033940;28;20469;-62
2022/12/13 12:12:01;;;;;;;3.10;2.80;;;;;;;;;;5034065;28;20036;-61
2022/12/13 12:14:48;;;;;;;3.05;2.72;;;;;;;;;;5033942;28;20481;-60
2022/12/13 12:17:17;;;;;;;2.88;2.67;;;;;;;;;;5034080;28;20071;-61
2022/12/13 12:19:45;;;;;;;3.47;2.90;;;;;;;;;;5034017;28;20029;-62
2022/12/13 12:22:29;;;;;;;3.22;2.67;;;;;;;;;;5032306;28;20041;-61
2022/12/13 12:25:20;;;;;;;3.53;2.83;;;;;;;;;;5033467;28;20029;-62
2022/12/13 12:28:08;;;;;;;;;;;;;;;;;;5034465;28;20197;-62
2022/12/13 12:30:52;;;;;;;2.97;2.72;;;;;;;;;;5032316;28;19913;-62
2022/12/13 12:33:40;;;;;;;5.10;3.15;;;;;;;;;;5033169;28;20028;-61
2022/12/13 12:36:39;;;;;;;4.25;3.00;;;;;;;;;;5033457;28;20036;-61
2022/12/13 12:39:18;;;;;;;3.77;3.10;;;;;;;;;;5033311;28;20029;-61
2022/12/13 12:42:08;;;;;;;3.80;2.88;;;;;;;;;;5033418;28;20112;-60
2022/12/13 12:44:52;;;;;;;3.33;2.72;;;;;;;;;;5033328;28;20512;-60
2022/12/13 12:47:52;;;;;;;3.88;2.70;;;;;;;;;;5033250;28;20034;-62
2022/12/13 12:50:31;;;;;;;3.25;2.88;;;;;;;;;;5030181;28;20115;-61
2022/12/13 12:53:05;;;;;;;4.15;2.97;;;;;;;;;;5033409;28;20037;-61
2022/12/13 12:55:47;;;;;;;3.70;2.92;;;;;;;;;;5032889;28;20126;-61
2022/12/13 12:58:26;;;;;;;4.38;2.92;;;;;;;;;;5033388;28;20262;-62
2022/12/13 13:01:19;;;;;;;3.03;2.70;;;;;;;;;;5033154;28;20026;-60
2022/12/13 13:03:47;;;;;;;3.65;2.83;;;;;;;;;;5032843;28;20025;-61
2022/12/13 13:06:30;;;;;;;2.90;2.65;;;;;;;;;;5032961;28;20032;-61
2022/12/13 13:09:02;;;;;;;3.53;2.88;;;;;;;;;;5032834;28;20049;-63
2022/12/13 13:11:32;;;;;;;3.83;2.80;;;;;;;;;;5033093;28;20025;-61
2022/12/13 13:13:57;;;;;;;4.22;3.00;;;;;;;;;;5032644;28;20029;-62
2022/12/13 13:16:26;;;;;;;4.25;2.90;;;;;;;;;;5032710;28;20045;-61
2022/12/13 13:18:56;;;;;;;3.75;3.08;;;;;;;;;;5032869;28;20029;-61
2022/12/13 13:21:30;;;;;;;3.05;2.78;;;;;;;;;;5032852;28;20176;-61
2022/12/13 13:24:08;;;;;;;3.42;3.00;;;;;;;;;;5032485;28;20037;-61
2022/12/13 13:26:37;;;;;;;3.05;2.60;;;;;;;;;;5032860;28;20022;-61
2022/12/13 13:29:23;;;;;;;3.30;3.00;;;;;;;;;;5032410;28;20033;-61
2022/12/13 13:31:56;;;;;;;3.45;3.00;;;;;;;;;;5025040;28;20325;-60
2022/12/13 13:34:27;;;;;;;4.43;3.13;;;;;;;;;;5032390;28;20061;-61
2022/12/13 13:36:55;;;;;;;4.45;3.13;;;;;;;;;;5032597;28;20021;-61
2022/12/13 13:39:35;;;;;;;3.85;3.00;;;;;;;;;;5032607;28;20040;-61
2022/12/13 13:42:13;;;;;;;5.25;3.30;;;;;;;;;;5030872;28;20388;-60
2022/12/13 13:44:44;;;;;;;3.38;3.08;;;;;;;;;;5031875;28;20048;-60
2022/12/13 13:47:19;;;;;;;3.50;3.13;;;;;;;;;;5032460;28;20071;-62
2022/12/13 13:50:03;;;;;;;3.20;2.78;;;;;;;;;;5032368;28;20025;-63
2022/12/13 13:52:34;;;;;;;3.20;2.85;;;;;;;;;;5032396;28;20021;-62
2022/12/13 13:55:19;;;;;;;3.85;3.17;;;;;;;;;;5032003;28;20201;-60
2022/12/13 13:57:53;;;;;;;4.30;2.85;;;;;;;;;;5032197;28;20026;-60
2022/12/13 14:00:44;;;;;;;2.97;2.67;;;;;;;;;;5032101;28;20389;-61
2022/12/13 14:03:19;;;;;;;3.10;2.80;;;;;;;;;;5031817;28;20037;-60
2022/12/13 14:06:26;;;;;;;4.18;3.00;;;;;;;;;;5032090;28;20049;-60
2022/12/13 14:09:28;;;;;;;3.40;3.10;;;;;;;;;;5031981;28;20032;-60
2022/12/13 14:12:31;;;;;;;4.07;3.30;;;;;;;;;;5032055;28;20380;-60
2022/12/13 14:15:39;;;;;;;3.72;3.08;;;;;;;;;;5031883;28;20025;-61
2022/12/13 14:18:23;;;;;;;3.10;2.80;;;;;;;;;;4989958;28;20049;-59
2022/12/13 14:21:12;;;;;;;3.85;3.15;;;;;;;;;;5028559;28;20037;-60
2022/12/13 14:24:02;;;;;;;3.55;2.95;;;;;;;;;;5032010;28;20029;-60
2022/12/13 14:26:42;;;;;;;3.92;3.10;;;;;;;;;;5031681;28;20025;-63
2022/12/13 14:29:17;;;;;;;3.08;2.75;;;;;;;;;;5031648;28;20068;-60
2022/12/13 14:31:46;;;;;;;3.08;2.63;;;;;;;;;;5032014;28;20053;-60
2022/12/13 14:34:23;;;;;;;3.30;2.95;;;;;;;;;;5032229;28;20053;-60
2022/12/13 14:37:16;;;;;;;3.28;2.97;;;;;;;;;;5031773;28;20032;-62
2022/12/13 14:39:44;;;;;;;3.22;2.92;;;;;;;;;;5031907;28;20108;-61
2022/12/13 14:42:32;;;;;;;3.92;3.25;;;;;;;;;;5031891;28;20056;-61
2022/12/13 14:45:35;;;;;;;3.70;3.20;;;;;;;;;;5031841;28;20098;-60
2022/12/13 14:48:04;;;;;;;3.33;3.03;;;;;;;;;;4973371;28;20038;-59
2022/12/13 14:50:33;;;;;;;3.30;2.97;;;;;;;;;;5024426;28;20172;-60
2022/12/13 14:53:01;;;;;;;4.70;3.00;;;;;;;;;;5031881;28;20032;-62
2022/12/13 14:55:34;;;;;;;3.83;3.03;;;;;;;;;;5031588;28;20099;-62
2022/12/13 14:58:01;;;;;;;4.50;2.88;;;;;;;;;;5035502;28;20067;-61
2022/12/13 15:00:34;;;;;;;3.50;2.72;;;;;;;;;;5035568;28;20095;-60
2022/12/13 15:03:02;;;;;;;4.05;2.90;;;;;;;;;;5035545;28;20047;-60
2022/12/13 15:05:35;;;;;;;3.00;2.70;;;;;;;;;;5035232;28;20029;-60
2022/12/13 15:08:01;;;;;;;3.05;2.72;;;;;;;;;;5035150;28;20033;-60
2022/12/13 15:10:36;;;;;;;3.33;2.90;;;;;;;;;;5035185;28;20025;-62